sensor_id;sensor_type;location;lat;lon;timestamp;P1;durP1;ratioP1;P2;durP2;ratioP2
5937;SDS011;2994;51.220;4.412;2024-01-16T06:31:06;6.17;;;3.90;;
5937;SDS011;2994;51.220;4.412;2024-01-16T07:20:09;5.67;;;3.73;;
5937;SDS011;2994;51.220;4.412;2024-01-16T07:29:02;4.70;;;3.27;;
5937;SDS011;2994;51.220;4.412;2024-01-16T07:32:24;10.37;;;4.07;;
5937;SDS011;2994;51.220;4.412;2024-01-16T07:34:50;6.40;;;3.70;;
5937;SDS011;2994;51.220;4.412;2024-01-16T07:37:26;4.43;;;3.50;;
5937;SDS011;2994;51.220;4.412;2024-01-16T07:39:51;3.87;;;3.37;;
5937;SDS011;2994;51.220;4.412;2024-01-16T07:42:17;4.83;;;3.73;;
5937;SDS011;2994;51.220;4.412;2024-01-16T07:44:42;5.47;;;3.73;;
5937;SDS011;2994;51.220;4.412;2024-01-16T07:47:08;6.50;;;3.83;;
5937;SDS011;2994;51.220;4.412;2024-01-16T07:49:34;7.57;;;4.43;;
5937;SDS011;2994;51.220;4.412;2024-01-16T07:52:03;3.63;;;3.23;;
5937;SDS011;2994;51.220;4.412;2024-01-16T07:54:29;6.30;;;3.80;;
5937;SDS011;2994;51.220;4.412;2024-01-16T07:56:56;6.67;;;3.00;;
5937;SDS011;2994;51.220;4.412;2024-01-16T07:59:21;7.37;;;3.70;;
5937;SDS011;2994;51.220;4.412;2024-01-16T08:01:47;5.73;;;4.00;;
5937;SDS011;2994;51.220;4.412;2024-01-16T08:04:13;6.90;;;3.97;;
5937;SDS011;2994;51.220;4.412;2024-01-16T08:06:38;4.97;;;4.47;;
5937;SDS011;2994;51.220;4.412;2024-01-16T08:09:04;6.50;;;3.97;;
5937;SDS011;2994;51.220;4.412;2024-01-16T08:11:31;4.53;;;3.70;;
5937;SDS011;2994;51.220;4.412;2024-01-16T08:13:56;7.20;;;4.13;;
5937;SDS011;2994;51.220;4.412;2024-01-16T08:16:22;5.27;;;3.37;;
5937;SDS011;2994;51.220;4.412;2024-01-16T08:18:47;5.43;;;3.43;;
5937;SDS011;2994;51.220;4.412;2024-01-16T08:21:14;4.73;;;3.57;;
5937;SDS011;2994;51.220;4.412;2024-01-16T08:24:12;4.70;;;3.53;;
5937;SDS011;2994;51.220;4.412;2024-01-16T08:26:44;5.00;;;3.50;;
5937;SDS011;2994;51.220;4.412;2024-01-16T08:29:10;5.23;;;3.47;;
5937;SDS011;2994;51.220;4.412;2024-01-16T08:34:15;5.57;;;3.90;;
5937;SDS011;2994;51.220;4.412;2024-01-16T08:36:58;7.70;;;4.10;;
5937;SDS011;2994;51.220;4.412;2024-01-16T08:39:26;5.10;;;4.10;;
5937;SDS011;2994;51.220;4.412;2024-01-16T08:42:14;4.83;;;4.03;;
5937;SDS011;2994;51.220;4.412;2024-01-16T08:44:40;8.03;;;3.70;;
5937;SDS011;2994;51.220;4.412;2024-01-16T08:47:08;5.70;;;3.77;;
5937;SDS011;2994;51.220;4.412;2024-01-16T08:49:43;5.53;;;3.57;;
5937;SDS011;2994;51.220;4.412;2024-01-16T08:52:13;3.97;;;3.57;;
5937;SDS011;2994;51.220;4.412;2024-01-16T08:54:49;4.90;;;3.67;;
5937;SDS011;2994;51.220;4.412;2024-01-16T08:57:19;4.60;;;4.13;;
5937;SDS011;2994;51.220;4.412;2024-01-16T08:59:48;4.80;;;3.70;;
5937;SDS011;2994;51.220;4.412;2024-01-16T09:07:34;5.57;;;3.63;;
5937;SDS011;2994;51.220;4.412;2024-01-16T09:10:09;5.90;;;3.83;;
5937;SDS011;2994;51.220;4.412;2024-01-16T09:12:41;6.80;;;4.20;;
5937;SDS011;2994;51.220;4.412;2024-01-16T09:24:05;5.57;;;4.87;;
5937;SDS011;2994;51.220;4.412;2024-01-16T09:26:35;7.63;;;4.27;;
5937;SDS011;2994;51.220;4.412;2024-01-16T09:29:04;7.50;;;4.17;;
5937;SDS011;2994;51.220;4.412;2024-01-16T09:39:18;6.40;;;5.30;;
5937;SDS011;2994;51.220;4.412;2024-01-16T09:41:46;7.10;;;4.37;;
5937;SDS011;2994;51.220;4.412;2024-01-16T09:44:14;8.00;;;5.57;;
5937;SDS011;2994;51.220;4.412;2024-01-16T09:46:40;6.27;;;4.10;;
5937;SDS011;2994;51.220;4.412;2024-01-16T09:49:21;5.90;;;4.13;;
5937;SDS011;2994;51.220;4.412;2024-01-16T09:51:53;6.53;;;4.50;;
5937;SDS011;2994;51.220;4.412;2024-01-16T09:54:22;5.23;;;4.27;;
5937;SDS011;2994;51.220;4.412;2024-01-16T10:04:49;5.70;;;3.50;;
5937;SDS011;2994;51.220;4.412;2024-01-16T10:07:20;5.10;;;3.33;;
5937;SDS011;2994;51.220;4.412;2024-01-16T10:10:03;5.67;;;3.43;;
5937;SDS011;2994;51.220;4.412;2024-01-16T10:13:04;6.13;;;4.60;;
5937;SDS011;2994;51.220;4.412;2024-01-16T10:15:33;5.97;;;3.77;;
5937;SDS011;2994;51.220;4.412;2024-01-16T10:18:01;5.07;;;4.00;;
5937;SDS011;2994;51.220;4.412;2024-01-16T10:20:34;6.70;;;4.70;;
5937;SDS011;2994;51.220;4.412;2024-01-16T10:25:40;4.67;;;4.27;;
5937;SDS011;2994;51.220;4.412;2024-01-16T10:28:14;4.50;;;4.10;;
5937;SDS011;2994;51.220;4.412;2024-01-16T10:30:53;8.70;;;4.27;;
5937;SDS011;2994;51.220;4.412;2024-01-16T10:33:27;6.63;;;4.00;;
5937;SDS011;2994;51.220;4.412;2024-01-16T10:36:26;5.27;;;3.47;;
5937;SDS011;2994;51.220;4.412;2024-01-16T10:38:48;5.00;;;3.70;;
5937;SDS011;2994;51.220;4.412;2024-01-16T10:41:17;5.57;;;4.13;;
5937;SDS011;2994;51.220;4.412;2024-01-16T10:43:43;4.10;;;2.90;;
5937;SDS011;2994;51.220;4.412;2024-01-16T10:46:16;4.73;;;3.20;;
5937;SDS011;2994;51.220;4.412;2024-01-16T10:49:02;5.20;;;3.47;;
5937;SDS011;2994;51.220;4.412;2024-01-16T10:51:36;5.70;;;3.90;;
5937;SDS011;2994;51.220;4.412;2024-01-16T10:54:04;6.67;;;3.80;;
5937;SDS011;2994;51.220;4.412;2024-01-16T10:56:34;7.23;;;4.03;;
5937;SDS011;2994;51.220;4.412;2024-01-16T11:01:35;6.90;;;4.10;;
5937;SDS011;2994;51.220;4.412;2024-01-16T11:04:01;9.30;;;4.83;;
5937;SDS011;2994;51.220;4.412;2024-01-16T11:06:27;6.63;;;3.07;;
5937;SDS011;2994;51.220;4.412;2024-01-16T11:08:54;5.87;;;3.90;;
5937;SDS011;2994;51.220;4.412;2024-01-16T11:11:21;6.60;;;4.00;;
5937;SDS011;2994;51.220;4.412;2024-01-16T11:13:47;4.83;;;3.20;;
5937;SDS011;2994;51.220;4.412;2024-01-16T11:16:15;5.60;;;3.90;;
5937;SDS011;2994;51.220;4.412;2024-01-16T11:18:42;5.17;;;3.67;;
5937;SDS011;2994;51.220;4.412;2024-01-16T11:21:14;10.23;;;4.10;;
5937;SDS011;2994;51.220;4.412;2024-01-16T11:23:41;5.77;;;3.77;;
5937;SDS011;2994;51.220;4.412;2024-01-16T11:28:57;5.13;;;3.37;;
5937;SDS011;2994;51.220;4.412;2024-01-16T11:31:27;7.77;;;4.30;;
5937;SDS011;2994;51.220;4.412;2024-01-16T11:34:00;4.57;;;3.90;;
5937;SDS011;2994;51.220;4.412;2024-01-16T11:39:17;6.73;;;3.60;;
5937;SDS011;2994;51.220;4.412;2024-01-16T11:41:48;6.43;;;3.80;;
5937;SDS011;2994;51.220;4.412;2024-01-16T11:47:08;7.80;;;3.80;;
5937;SDS011;2994;51.220;4.412;2024-01-16T11:49:37;4.80;;;3.70;;
5937;SDS011;2994;51.220;4.412;2024-01-16T11:52:04;7.17;;;3.10;;
5937;SDS011;2994;51.220;4.412;2024-01-16T11:57:36;4.60;;;3.20;;
5937;SDS011;2994;51.220;4.412;2024-01-16T12:00:18;6.83;;;3.30;;
5937;SDS011;2994;51.220;4.412;2024-01-16T12:02:55;6.63;;;4.57;;
5937;SDS011;2994;51.220;4.412;2024-01-16T12:05:22;6.13;;;4.03;;
5937;SDS011;2994;51.220;4.412;2024-01-16T12:07:48;6.03;;;4.10;;
5937;SDS011;2994;51.220;4.412;2024-01-16T12:10:15;4.47;;;3.20;;
5937;SDS011;2994;51.220;4.412;2024-01-16T12:12:46;5.10;;;3.30;;
5937;SDS011;2994;51.220;4.412;2024-01-16T12:20:43;5.90;;;3.40;;
5937;SDS011;2994;51.220;4.412;2024-01-16T12:23:09;7.20;;;3.60;;
5937;SDS011;2994;51.220;4.412;2024-01-16T12:25:35;4.70;;;3.37;;
5937;SDS011;2994;51.220;4.412;2024-01-16T12:28:07;5.87;;;3.93;;
5937;SDS011;2994;51.220;4.412;2024-01-16T12:33:16;4.20;;;3.80;;
5937;SDS011;2994;51.220;4.412;2024-01-16T12:35:48;5.07;;;3.63;;
5937;SDS011;2994;51.220;4.412;2024-01-16T12:41:08;4.73;;;3.07;;
5937;SDS011;2994;51.220;4.412;2024-01-16T12:43:52;7.83;;;3.70;;
5937;SDS011;2994;51.220;4.412;2024-01-16T12:46:18;4.53;;;3.37;;
5937;SDS011;2994;51.220;4.412;2024-01-16T12:48:44;4.70;;;3.00;;
5937;SDS011;2994;51.220;4.412;2024-01-16T12:51:12;7.13;;;4.13;;
5937;SDS011;2994;51.220;4.412;2024-01-16T12:53:45;7.10;;;3.87;;
5937;SDS011;2994;51.220;4.412;2024-01-16T12:56:10;4.70;;;3.50;;
5937;SDS011;2994;51.220;4.412;2024-01-16T12:58:37;3.57;;;2.97;;
5937;SDS011;2994;51.220;4.412;2024-01-16T13:01:22;4.87;;;3.70;;
5937;SDS011;2994;51.220;4.412;2024-01-16T13:03:52;6.00;;;4.40;;
5937;SDS011;2994;51.220;4.412;2024-01-16T13:06:18;4.80;;;3.33;;
5937;SDS011;2994;51.220;4.412;2024-01-16T13:08:45;5.13;;;3.20;;
5937;SDS011;2994;51.220;4.412;2024-01-16T13:11:14;5.20;;;4.00;;
5937;SDS011;2994;51.220;4.412;2024-01-16T13:13:44;4.27;;;3.30;;
5937;SDS011;2994;51.220;4.412;2024-01-16T13:16:16;4.60;;;3.60;;
5937;SDS011;2994;51.220;4.412;2024-01-16T13:18:42;5.80;;;3.80;;
5937;SDS011;2994;51.220;4.412;2024-01-16T13:21:07;9.13;;;4.67;;
5937;SDS011;2994;51.220;4.412;2024-01-16T13:23:33;5.97;;;3.90;;
5937;SDS011;2994;51.220;4.412;2024-01-16T13:26:01;4.43;;;3.57;;
5937;SDS011;2994;51.220;4.412;2024-01-16T13:28:29;4.40;;;3.87;;
5937;SDS011;2994;51.220;4.412;2024-01-16T13:30:55;4.50;;;3.37;;
5937;SDS011;2994;51.220;4.412;2024-01-16T13:33:24;5.67;;;3.90;;
5937;SDS011;2994;51.220;4.412;2024-01-16T13:35:52;4.50;;;3.80;;
5937;SDS011;2994;51.220;4.412;2024-01-16T13:38:19;7.10;;;4.33;;
5937;SDS011;2994;51.220;4.412;2024-01-16T13:40:45;5.83;;;4.00;;
5937;SDS011;2994;51.220;4.412;2024-01-16T13:43:11;7.63;;;3.20;;
5937;SDS011;2994;51.220;4.412;2024-01-16T13:45:37;7.40;;;3.97;;
5937;SDS011;2994;51.220;4.412;2024-01-16T13:48:04;8.23;;;4.00;;
5937;SDS011;2994;51.220;4.412;2024-01-16T13:50:31;5.90;;;4.30;;
5937;SDS011;2994;51.220;4.412;2024-01-16T13:52:58;5.43;;;3.80;;
5937;SDS011;2994;51.220;4.412;2024-01-16T13:55:24;6.73;;;3.30;;
5937;SDS011;2994;51.220;4.412;2024-01-16T13:57:49;5.03;;;3.07;;
5937;SDS011;2994;51.220;4.412;2024-01-16T14:00:15;5.13;;;3.43;;
5937;SDS011;2994;51.220;4.412;2024-01-16T14:02:42;4.80;;;3.13;;
5937;SDS011;2994;51.220;4.412;2024-01-16T14:05:13;5.97;;;3.60;;
5937;SDS011;2994;51.220;4.412;2024-01-16T14:07:41;5.47;;;3.90;;
5937;SDS011;2994;51.220;4.412;2024-01-16T14:10:07;7.07;;;3.63;;
5937;SDS011;2994;51.220;4.412;2024-01-16T14:12:43;8.83;;;3.83;;
5937;SDS011;2994;51.220;4.412;2024-01-16T14:15:16;8.93;;;4.00;;
5937;SDS011;2994;51.220;4.412;2024-01-16T14:17:54;4.20;;;3.40;;
5937;SDS011;2994;51.220;4.412;2024-01-16T14:20:23;5.70;;;3.23;;
5937;SDS011;2994;51.220;4.412;2024-01-16T14:25:26;4.13;;;3.13;;
5937;SDS011;2994;51.220;4.412;2024-01-16T14:27:59;6.37;;;3.20;;
5937;SDS011;2994;51.220;4.412;2024-01-16T14:30:29;4.47;;;3.17;;
5937;SDS011;2994;51.220;4.412;2024-01-16T14:32:58;5.80;;;4.00;;
5937;SDS011;2994;51.220;4.412;2024-01-16T14:35:24;5.80;;;3.70;;
5937;SDS011;2994;51.220;4.412;2024-01-16T14:37:52;6.27;;;3.50;;
5937;SDS011;2994;51.220;4.412;2024-01-16T14:40:18;5.77;;;3.90;;
5937;SDS011;2994;51.220;4.412;2024-01-16T14:42:50;7.93;;;4.53;;
5937;SDS011;2994;51.220;4.412;2024-01-16T14:45:21;4.63;;;3.40;;
5937;SDS011;2994;51.220;4.412;2024-01-16T14:47:48;6.73;;;3.60;;
5937;SDS011;2994;51.220;4.412;2024-01-16T14:50:15;7.07;;;3.80;;
5937;SDS011;2994;51.220;4.412;2024-01-16T14:52:44;5.60;;;3.40;;
5937;SDS011;2994;51.220;4.412;2024-01-16T14:55:10;7.30;;;3.80;;
5937;SDS011;2994;51.220;4.412;2024-01-16T14:57:39;7.17;;;3.40;;
5937;SDS011;2994;51.220;4.412;2024-01-16T15:00:08;6.10;;;3.40;;
5937;SDS011;2994;51.220;4.412;2024-01-16T15:03:00;5.97;;;3.10;;
5937;SDS011;2994;51.220;4.412;2024-01-16T15:05:25;4.67;;;3.40;;
5937;SDS011;2994;51.220;4.412;2024-01-16T15:07:51;6.53;;;3.90;;
5937;SDS011;2994;51.220;4.412;2024-01-16T15:10:17;6.00;;;4.03;;
5937;SDS011;2994;51.220;4.412;2024-01-16T15:12:43;7.57;;;3.13;;
5937;SDS011;2994;51.220;4.412;2024-01-16T15:15:10;9.17;;;4.40;;
5937;SDS011;2994;51.220;4.412;2024-01-16T15:17:38;4.70;;;3.30;;
5937;SDS011;2994;51.220;4.412;2024-01-16T15:20:07;5.07;;;3.73;;
5937;SDS011;2994;51.220;4.412;2024-01-16T15:22:39;8.10;;;4.37;;
5937;SDS011;2994;51.220;4.412;2024-01-16T15:25:22;5.70;;;4.30;;
5937;SDS011;2994;51.220;4.412;2024-01-16T15:27:52;5.57;;;3.77;;
5937;SDS011;2994;51.220;4.412;2024-01-16T15:30:20;5.57;;;3.60;;
5937;SDS011;2994;51.220;4.412;2024-01-16T15:32:47;5.60;;;3.80;;
5937;SDS011;2994;51.220;4.412;2024-01-16T15:35:18;6.37;;;3.80;;
5937;SDS011;2994;51.220;4.412;2024-01-16T15:37:47;5.70;;;4.30;;
5937;SDS011;2994;51.220;4.412;2024-01-16T15:40:13;4.70;;;3.50;;
5937;SDS011;2994;51.220;4.412;2024-01-16T15:42:40;5.77;;;3.50;;
5937;SDS011;2994;51.220;4.412;2024-01-16T15:45:05;5.70;;;3.10;;
5937;SDS011;2994;51.220;4.412;2024-01-16T15:47:32;5.33;;;3.37;;
5937;SDS011;2994;51.220;4.412;2024-01-16T15:49:58;9.23;;;3.77;;
5937;SDS011;2994;51.220;4.412;2024-01-16T15:52:24;7.83;;;4.83;;
5937;SDS011;2994;51.220;4.412;2024-01-16T15:54:50;6.93;;;5.30;;
5937;SDS011;2994;51.220;4.412;2024-01-16T15:57:15;6.30;;;4.37;;
5937;SDS011;2994;51.220;4.412;2024-01-16T15:59:41;7.30;;;4.87;;
5937;SDS011;2994;51.220;4.412;2024-01-16T16:02:06;5.93;;;5.33;;
5937;SDS011;2994;51.220;4.412;2024-01-16T16:04:33;6.97;;;4.00;;
5937;SDS011;2994;51.220;4.412;2024-01-16T16:06:59;4.33;;;3.77;;
5937;SDS011;2994;51.220;4.412;2024-01-16T16:09:25;5.27;;;3.90;;
5937;SDS011;2994;51.220;4.412;2024-01-16T16:11:51;4.53;;;3.67;;
5937;SDS011;2994;51.220;4.412;2024-01-16T16:14:17;7.07;;;5.93;;
5937;SDS011;2994;51.220;4.412;2024-01-16T16:16:46;6.00;;;4.27;;
5937;SDS011;2994;51.220;4.412;2024-01-16T16:19:13;6.67;;;3.83;;
5937;SDS011;2994;51.220;4.412;2024-01-16T16:21:39;4.40;;;3.67;;
5937;SDS011;2994;51.220;4.412;2024-01-16T16:24:05;8.20;;;4.43;;
5937;SDS011;2994;51.220;4.412;2024-01-16T16:26:32;7.43;;;4.33;;
5937;SDS011;2994;51.220;4.412;2024-01-16T16:29:04;7.17;;;4.60;;
5937;SDS011;2994;51.220;4.412;2024-01-16T16:31:30;6.07;;;3.77;;
5937;SDS011;2994;51.220;4.412;2024-01-16T16:33:57;7.33;;;4.37;;
5937;SDS011;2994;51.220;4.412;2024-01-16T16:36:26;6.53;;;4.83;;
5937;SDS011;2994;51.220;4.412;2024-01-16T16:38:55;5.47;;;3.70;;
5937;SDS011;2994;51.220;4.412;2024-01-16T16:41:22;8.10;;;5.27;;
5937;SDS011;2994;51.220;4.412;2024-01-16T16:43:48;5.27;;;4.40;;
5937;SDS011;2994;51.220;4.412;2024-01-16T16:46:15;6.40;;;4.77;;
5937;SDS011;2994;51.220;4.412;2024-01-16T16:48:50;6.80;;;3.97;;
5937;SDS011;2994;51.220;4.412;2024-01-16T16:51:16;6.30;;;4.57;;
5937;SDS011;2994;51.220;4.412;2024-01-16T16:53:43;6.50;;;4.80;;
5937;SDS011;2994;51.220;4.412;2024-01-16T16:56:13;6.97;;;5.30;;
5937;SDS011;2994;51.220;4.412;2024-01-16T16:58:44;7.13;;;4.67;;
5937;SDS011;2994;51.220;4.412;2024-01-16T17:01:14;7.67;;;4.53;;
5937;SDS011;2994;51.220;4.412;2024-01-16T17:03:40;4.23;;;3.83;;
5937;SDS011;2994;51.220;4.412;2024-01-16T17:06:08;8.30;;;5.20;;
5937;SDS011;2994;51.220;4.412;2024-01-16T17:08:35;7.50;;;4.33;;
5937;SDS011;2994;51.220;4.412;2024-01-16T17:11:01;5.30;;;4.13;;
5937;SDS011;2994;51.220;4.412;2024-01-16T17:13:31;6.40;;;4.50;;
5937;SDS011;2994;51.220;4.412;2024-01-16T17:15:57;11.83;;;4.50;;
5937;SDS011;2994;51.220;4.412;2024-01-16T17:18:23;5.77;;;4.83;;
5937;SDS011;2994;51.220;4.412;2024-01-16T17:20:52;7.17;;;5.30;;
5937;SDS011;2994;51.220;4.412;2024-01-16T17:23:18;7.13;;;4.87;;
5937;SDS011;2994;51.220;4.412;2024-01-16T17:25:44;6.10;;;4.80;;
5937;SDS011;2994;51.220;4.412;2024-01-16T17:28:10;5.63;;;4.87;;
5937;SDS011;2994;51.220;4.412;2024-01-16T17:30:36;5.43;;;4.60;;
5937;SDS011;2994;51.220;4.412;2024-01-16T17:33:02;10.77;;;5.50;;
5937;SDS011;2994;51.220;4.412;2024-01-16T17:35:28;8.60;;;5.60;;
5937;SDS011;2994;51.220;4.412;2024-01-16T17:37:54;6.33;;;5.27;;
5937;SDS011;2994;51.220;4.412;2024-01-16T17:40:20;5.40;;;4.83;;
5937;SDS011;2994;51.220;4.412;2024-01-16T17:42:45;5.60;;;5.10;;
5937;SDS011;2994;51.220;4.412;2024-01-16T17:45:11;6.40;;;5.80;;
5937;SDS011;2994;51.220;4.412;2024-01-16T17:47:37;7.00;;;5.50;;
5937;SDS011;2994;51.220;4.412;2024-01-16T17:50:03;8.63;;;5.83;;
5937;SDS011;2994;51.220;4.412;2024-01-16T17:52:31;8.17;;;6.40;;
5937;SDS011;2994;51.220;4.412;2024-01-16T17:54:58;7.63;;;6.13;;
5937;SDS011;2994;51.220;4.412;2024-01-16T17:57:24;6.77;;;5.87;;
5937;SDS011;2994;51.220;4.412;2024-01-16T17:59:51;10.63;;;6.00;;
5937;SDS011;2994;51.220;4.412;2024-01-16T18:02:16;7.87;;;7.07;;
5937;SDS011;2994;51.220;4.412;2024-01-16T18:04:42;7.70;;;6.00;;
5937;SDS011;2994;51.220;4.412;2024-01-16T18:07:07;9.60;;;7.07;;
5937;SDS011;2994;51.220;4.412;2024-01-16T18:09:33;7.47;;;6.40;;
5937;SDS011;2994;51.220;4.412;2024-01-16T18:11:59;9.17;;;6.50;;
5937;SDS011;2994;51.220;4.412;2024-01-16T18:14:26;7.87;;;6.90;;
5937;SDS011;2994;51.220;4.412;2024-01-16T18:16:52;8.33;;;6.47;;
5937;SDS011;2994;51.220;4.412;2024-01-16T18:19:22;8.60;;;7.47;;
5937;SDS011;2994;51.220;4.412;2024-01-16T18:21:49;7.90;;;6.40;;
5937;SDS011;2994;51.220;4.412;2024-01-16T18:24:15;8.20;;;7.07;;
5937;SDS011;2994;51.220;4.412;2024-01-16T18:26:41;10.77;;;7.70;;
5937;SDS011;2994;51.220;4.412;2024-01-16T18:29:13;11.40;;;7.03;;
5937;SDS011;2994;51.220;4.412;2024-01-16T18:31:39;8.43;;;7.40;;
5937;SDS011;2994;51.220;4.412;2024-01-16T18:34:05;12.60;;;8.30;;
5937;SDS011;2994;51.220;4.412;2024-01-16T18:36:34;8.97;;;7.07;;
5937;SDS011;2994;51.220;4.412;2024-01-16T18:39:00;8.20;;;6.67;;
5937;SDS011;2994;51.220;4.412;2024-01-16T18:41:26;9.13;;;7.60;;
5937;SDS011;2994;51.220;4.412;2024-01-16T18:43:51;9.33;;;7.30;;
5937;SDS011;2994;51.220;4.412;2024-01-16T18:46:20;9.33;;;8.10;;
5937;SDS011;2994;51.220;4.412;2024-01-16T18:48:48;8.80;;;8.00;;
5937;SDS011;2994;51.220;4.412;2024-01-16T18:51:13;10.47;;;8.00;;
5937;SDS011;2994;51.220;4.412;2024-01-16T18:53:39;8.13;;;7.30;;
5937;SDS011;2994;51.220;4.412;2024-01-16T18:56:05;9.60;;;8.60;;
5937;SDS011;2994;51.220;4.412;2024-01-16T18:58:31;10.20;;;8.20;;
5937;SDS011;2994;51.220;4.412;2024-01-16T19:00:57;9.03;;;7.93;;
5937;SDS011;2994;51.220;4.412;2024-01-16T19:03:24;11.80;;;8.53;;
5937;SDS011;2994;51.220;4.412;2024-01-16T19:05:49;11.13;;;9.37;;
5937;SDS011;2994;51.220;4.412;2024-01-16T19:08:18;8.63;;;7.43;;
5937;SDS011;2994;51.220;4.412;2024-01-16T19:10:51;11.13;;;8.70;;
5937;SDS011;2994;51.220;4.412;2024-01-16T19:13:19;10.13;;;9.03;;
5937;SDS011;2994;51.220;4.412;2024-01-16T19:15:45;12.40;;;9.17;;
5937;SDS011;2994;51.220;4.412;2024-01-16T19:18:11;10.20;;;9.20;;
5937;SDS011;2994;51.220;4.412;2024-01-16T19:20:37;9.07;;;8.17;;
5937;SDS011;2994;51.220;4.412;2024-01-16T19:23:02;10.30;;;9.07;;
5937;SDS011;2994;51.220;4.412;2024-01-16T19:25:30;15.27;;;8.30;;
5937;SDS011;2994;51.220;4.412;2024-01-16T19:27:56;11.33;;;9.10;;
5937;SDS011;2994;51.220;4.412;2024-01-16T19:30:22;10.40;;;9.17;;
5937;SDS011;2994;51.220;4.412;2024-01-16T19:32:49;9.50;;;8.50;;
5937;SDS011;2994;51.220;4.412;2024-01-16T19:35:15;11.10;;;9.27;;
5937;SDS011;2994;51.220;4.412;2024-01-16T19:37:42;10.50;;;9.50;;
5937;SDS011;2994;51.220;4.412;2024-01-16T19:40:08;11.40;;;10.30;;
5937;SDS011;2994;51.220;4.412;2024-01-16T19:42:40;11.80;;;10.57;;
5937;SDS011;2994;51.220;4.412;2024-01-16T19:45:07;10.80;;;9.70;;
5937;SDS011;2994;51.220;4.412;2024-01-16T19:47:33;11.53;;;9.80;;
5937;SDS011;2994;51.220;4.412;2024-01-16T19:49:59;11.10;;;10.00;;
5937;SDS011;2994;51.220;4.412;2024-01-16T19:52:30;11.67;;;9.93;;
5937;SDS011;2994;51.220;4.412;2024-01-16T19:54:56;15.30;;;10.90;;
5937;SDS011;2994;51.220;4.412;2024-01-16T19:57:25;12.27;;;10.97;;
5937;SDS011;2994;51.220;4.412;2024-01-16T19:59:51;11.77;;;10.30;;
5937;SDS011;2994;51.220;4.412;2024-01-16T20:02:17;13.90;;;10.97;;
5937;SDS011;2994;51.220;4.412;2024-01-16T20:04:42;11.80;;;10.60;;
5937;SDS011;2994;51.220;4.412;2024-01-16T20:07:08;11.03;;;9.80;;
5937;SDS011;2994;51.220;4.412;2024-01-16T20:09:33;13.33;;;10.80;;
5937;SDS011;2994;51.220;4.412;2024-01-16T20:11:59;12.97;;;11.70;;
5937;SDS011;2994;51.220;4.412;2024-01-16T20:14:26;12.20;;;11.10;;
5937;SDS011;2994;51.220;4.412;2024-01-16T20:16:52;12.37;;;11.17;;
5937;SDS011;2994;51.220;4.412;2024-01-16T20:19:18;14.10;;;12.03;;
5937;SDS011;2994;51.220;4.412;2024-01-16T20:21:43;12.70;;;11.40;;
5937;SDS011;2994;51.220;4.412;2024-01-16T20:24:10;16.03;;;12.60;;
5937;SDS011;2994;51.220;4.412;2024-01-16T20:26:36;13.33;;;11.93;;
5937;SDS011;2994;51.220;4.412;2024-01-16T20:29:02;12.27;;;11.03;;
5937;SDS011;2994;51.220;4.412;2024-01-16T20:31:29;13.13;;;11.80;;
5937;SDS011;2994;51.220;4.412;2024-01-16T20:33:55;16.93;;;12.07;;
5937;SDS011;2994;51.220;4.412;2024-01-16T20:36:20;15.63;;;12.03;;
5937;SDS011;2994;51.220;4.412;2024-01-16T20:38:46;12.43;;;11.23;;
5937;SDS011;2994;51.220;4.412;2024-01-16T20:41:13;13.50;;;12.10;;
5937;SDS011;2994;51.220;4.412;2024-01-16T20:43:39;13.10;;;11.80;;
5937;SDS011;2994;51.220;4.412;2024-01-16T20:46:05;12.47;;;11.10;;
5937;SDS011;2994;51.220;4.412;2024-01-16T20:48:32;14.17;;;12.73;;
5937;SDS011;2994;51.220;4.412;2024-01-16T20:50:58;12.73;;;11.00;;
5937;SDS011;2994;51.220;4.412;2024-01-16T20:53:25;12.60;;;11.30;;
5937;SDS011;2994;51.220;4.412;2024-01-16T20:55:51;13.83;;;12.10;;
5937;SDS011;2994;51.220;4.412;2024-01-16T20:58:19;13.90;;;11.70;;
5937;SDS011;2994;51.220;4.412;2024-01-16T21:00:45;14.30;;;12.80;;
5937;SDS011;2994;51.220;4.412;2024-01-16T21:03:11;13.57;;;12.07;;
5937;SDS011;2994;51.220;4.412;2024-01-16T21:05:37;14.20;;;12.73;;
5937;SDS011;2994;51.220;4.412;2024-01-16T21:08:04;13.30;;;11.20;;
5937;SDS011;2994;51.220;4.412;2024-01-16T21:10:30;12.37;;;11.07;;
5937;SDS011;2994;51.220;4.412;2024-01-16T21:12:56;16.07;;;12.47;;
5937;SDS011;2994;51.220;4.412;2024-01-16T21:15:22;14.27;;;11.70;;
5937;SDS011;2994;51.220;4.412;2024-01-16T21:17:47;13.97;;;12.47;;
5937;SDS011;2994;51.220;4.412;2024-01-16T21:20:13;13.80;;;12.40;;
5937;SDS011;2994;51.220;4.412;2024-01-16T21:22:39;12.93;;;11.63;;
5937;SDS011;2994;51.220;4.412;2024-01-16T21:25:05;13.57;;;12.30;;
5937;SDS011;2994;51.220;4.412;2024-01-16T21:27:33;13.13;;;11.73;;
5937;SDS011;2994;51.220;4.412;2024-01-16T21:29:59;17.20;;;12.87;;
5937;SDS011;2994;51.220;4.412;2024-01-16T21:32:25;14.63;;;12.30;;
5937;SDS011;2994;51.220;4.412;2024-01-16T21:34:51;13.90;;;12.10;;
5937;SDS011;2994;51.220;4.412;2024-01-16T21:37:16;13.93;;;12.43;;
5937;SDS011;2994;51.220;4.412;2024-01-16T21:39:42;14.57;;;11.53;;
5937;SDS011;2994;51.220;4.412;2024-01-16T21:42:08;17.40;;;12.70;;
5937;SDS011;2994;51.220;4.412;2024-01-16T21:44:34;15.60;;;13.30;;
5937;SDS011;2994;51.220;4.412;2024-01-16T21:47:00;14.50;;;12.03;;
5937;SDS011;2994;51.220;4.412;2024-01-16T21:49:25;14.00;;;12.53;;
5937;SDS011;2994;51.220;4.412;2024-01-16T21:51:51;16.50;;;13.70;;
5937;SDS011;2994;51.220;4.412;2024-01-16T21:54:16;14.33;;;12.80;;
5937;SDS011;2994;51.220;4.412;2024-01-16T21:56:42;14.90;;;12.70;;
5937;SDS011;2994;51.220;4.412;2024-01-16T21:59:07;16.10;;;13.30;;
5937;SDS011;2994;51.220;4.412;2024-01-16T22:01:33;18.53;;;12.77;;
5937;SDS011;2994;51.220;4.412;2024-01-16T22:03:59;14.63;;;12.90;;
5937;SDS011;2994;51.220;4.412;2024-01-16T22:06:28;15.83;;;12.03;;
5937;SDS011;2994;51.220;4.412;2024-01-16T22:11:28;15.57;;;13.17;;
5937;SDS011;2994;51.220;4.412;2024-01-16T22:13:54;16.47;;;12.60;;
5937;SDS011;2994;51.220;4.412;2024-01-16T22:16:20;17.47;;;13.03;;
5937;SDS011;2994;51.220;4.412;2024-01-16T22:18:51;18.73;;;12.47;;
5937;SDS011;2994;51.220;4.412;2024-01-16T22:21:16;16.27;;;11.70;;
5937;SDS011;2994;51.220;4.412;2024-01-16T22:23:45;14.77;;;13.20;;
5937;SDS011;2994;51.220;4.412;2024-01-16T22:26:12;17.00;;;13.37;;
5937;SDS011;2994;51.220;4.412;2024-01-16T22:28:38;16.63;;;13.40;;
5937;SDS011;2994;51.220;4.412;2024-01-16T22:31:08;16.57;;;12.70;;
5937;SDS011;2994;51.220;4.412;2024-01-16T22:33:34;16.93;;;13.07;;
5937;SDS011;2994;51.220;4.412;2024-01-16T22:35:59;15.13;;;12.50;;
5937;SDS011;2994;51.220;4.412;2024-01-16T22:38:28;16.77;;;12.50;;
5937;SDS011;2994;51.220;4.412;2024-01-16T22:40:59;16.57;;;12.23;;
5937;SDS011;2994;51.220;4.412;2024-01-16T22:43:25;14.37;;;11.93;;
5937;SDS011;2994;51.220;4.412;2024-01-16T22:45:50;17.00;;;11.80;;
